Marlinton, WV

7:57 AM EST on January 29, 2015 (GMT -0500)
RAWS MARLINTON WV US | Change Station
CLOSE
Current Station
Personal Weather Station
Location: Marlinton, WV
Elevation: 3082 ft
Nearby Weather Stations
Active Advisory: Winter Weather Advisory

Elev 3082 ft 38.22 °N, 80.04 °W | Updated 56 minutes ago

Partly Cloudy
Partly Cloudy
21 °F
Feels Like 21 °F
N
2
Wind Variable Wind from SW
Gusts 5.0 mph

Today
High -- | Low -- °F
--% Chance of Precip.
Yesterday
High -- | Low -- °F
Precip. -- in
7:27 AM 5:39 PM
Waxing Gibbous, 74% visible
Pressure 30.07 in
Visibility 10.0 miles
Clouds Scattered Clouds 12000 ft
Windchill 21 °F
Dew Point 10 °F
Humidity 61%
Rainfall 0.04 in
Snow Depth Not available.
UV 0 out of 12
Pollen .10 out of 12
Air Quality Not available.
Flu Activity Not available.
METAR KHSP 291235Z AUTO 19015G22KT 10SM SCT120 M04/M12 A3007 RMK AO2 T10381125

More Conditions Fewer Conditions

Pressure 30.07 in
Visibility 10.0 miles
Clouds Scattered Clouds 12000 ft
Windchill 21 °F
Dew Point 10 °F
Humidity 61%
Rainfall 0.04 in
Snow Depth Not available.
UV 0 out of 12
Pollen .10 out of 12
Air Quality Not available.
Flu Activity Not available.
METAR KHSP 291235Z AUTO 19015G22KT 10SM SCT120 M04/M12 A3007 RMK AO2 T10381125

More Conditions Fewer Conditions

10-Day Weather Forecast

Almanac

Astronomy

Jan. 29, 2015 Rise Set
Actual Time
Civil Twilight
Nautical Twilight
Astronomical Twilight
Moon
Length of Visible Light
Length of Day
Tomorrow will be .
, % of the Moon is Illuminated

Today's Extremes

State Highs State Lows

Community

WunderPhotos

Upload Photos

1,791,420 photos uploaded!

WunderBlogs® & News

Nearby

Air Quality

  Air Quality AQ Index Pollutant
Not available.

Snow Depth

Station Depth Elevation

Earthquake Activity

City Distance Mag. Time & Date
Minimum magnitude displayed is 2.5.

Coastal Water Temperatures

Place Temperature

Nearby Weather Stations